Time;durP1;ratioP1;P1;durP2;ratioP2;P2;SDS_P1;SDS_P2;PMS_P1;PMS_P2;Temp;Humidity;BMP_temperature;BMP_pressure;BME280_temperature;BME280_humidity;BME280_pressure;Samples;Min_cycle;Max_cycle;Signal;HPM_P1;HPM_P2
2022/08/03 00:00:07;;;;;;;3.30;3.00;;;21.40;53.40;;;;;;5137200;28;20540;-48
2022/08/03 00:02:38;;;;;;;5.23;2.70;;;21.40;53.40;;;;;;5138258;28;20669;-48
2022/08/03 00:05:08;;;;;;;7.27;3.33;;;21.40;53.40;;;;;;5139750;28;20449;-48
2022/08/03 00:07:40;;;;;;;3.63;2.47;;;21.50;53.40;;;;;;5136137;28;20202;-48
2022/08/03 00:10:12;;;;;;;2.67;2.50;;;21.50;53.20;;;;;;5139818;28;20204;-49
2022/08/03 00:12:42;;;;;;;4.10;3.03;;;21.50;53.60;;;;;;5139390;28;20449;-48
2022/08/03 00:15:13;;;;;;;6.63;3.37;;;21.50;53.50;;;;;;5139376;28;20460;-48
2022/08/03 00:17:44;;;;;;;5.50;3.50;;;21.50;53.70;;;;;;5138891;28;20225;-49
2022/08/03 00:20:15;;;;;;;8.53;2.50;;;21.50;53.60;;;;;;5135762;28;20186;-48
2022/08/03 00:22:45;;;;;;;3.77;3.00;;;21.50;53.50;;;;;;5138433;28;20443;-47
2022/08/03 00:25:16;;;;;;;4.23;2.50;;;21.50;53.70;;;;;;5136982;28;20189;-49
2022/08/03 00:27:47;;;;;;;2.00;1.93;;;21.50;53.60;;;;;;5132516;28;20643;-54
2022/08/03 00:30:18;;;;;;;2.30;2.20;;;21.50;53.70;;;;;;5140476;28;20603;-48
2022/08/03 00:32:48;;;;;;;4.40;2.23;;;21.50;53.70;;;;;;5136960;28;20631;-47
2022/08/03 00:35:19;;;;;;;4.83;2.90;;;21.50;53.90;;;;;;5130790;28;20278;-47
2022/08/03 00:37:50;;;;;;;5.03;2.07;;;21.50;54.00;;;;;;5159103;28;20205;-48
2022/08/03 00:40:21;;;;;;;2.27;2.13;;;21.50;54.10;;;;;;5133560;28;20266;-48
2022/08/03 00:43:00;;;;;;;7.67;3.27;;;21.50;54.30;;;;;;5130492;28;20194;-48
2022/08/03 00:45:36;;;;;;;7.53;2.77;;;21.50;54.40;;;;;;5133654;28;20178;-46
2022/08/03 00:48:09;;;;;;;10.70;3.00;;;21.40;54.40;;;;;;5141913;28;20452;-47
2022/08/03 00:50:42;;;;;;;2.77;2.67;;;21.40;54.50;;;;;;5135953;28;20433;-46
2022/08/03 00:53:13;;;;;;;6.93;2.77;;;21.40;54.60;;;;;;5136041;28;20449;-49
2022/08/03 00:55:44;;;;;;;5.20;3.00;;;21.40;54.90;;;;;;5140102;28;20495;-49
2022/08/03 00:58:14;;;;;;;4.40;3.60;;;21.40;54.80;;;;;;5146902;28;20530;-46
2022/08/03 01:00:45;;;;;;;2.90;2.70;;;21.40;54.90;;;;;;5139545;28;20190;-45
2022/08/03 01:03:16;;;;;;;3.10;2.13;;;21.40;55.10;;;;;;5139091;28;20272;-46
2022/08/03 01:05:59;;;;;;;5.57;2.77;;;21.30;55.20;;;;;;5138856;28;20182;-46
2022/08/03 01:09:01;;;;;;;5.50;2.43;;;21.30;55.50;;;;;;5134109;28;20205;-47
2022/08/03 01:11:52;;;;;;;3.33;2.70;;;21.20;55.70;;;;;;5139585;28;21038;-46
2022/08/03 01:14:38;;;;;;;7.40;2.70;;;21.10;55.90;;;;;;5121364;28;20438;-45
2022/08/03 01:17:22;;;;;;;6.03;2.50;;;21.10;56.30;;;;;;5134240;28;20556;-46
2022/08/03 01:20:06;;;;;;;3.37;2.70;;;21.00;56.50;;;;;;5139416;28;20426;-46
2022/08/03 01:23:10;;;;;;;6.80;2.30;;;21.00;56.60;;;;;;5136171;28;20468;-46
2022/08/03 01:26:04;;;;;;;3.63;2.60;;;20.90;56.80;;;;;;5135455;28;20444;-45
2022/08/03 01:29:06;;;;;;;3.30;3.00;;;20.90;56.80;;;;;;5139096;28;20772;-48
2022/08/03 01:32:14;;;;;;;2.97;2.73;;;20.90;57.00;;;;;;5138353;28;20462;-47
2022/08/03 01:34:51;;;;;;;20.40;2.83;;;20.90;56.90;;;;;;5142687;28;20916;-46
2022/08/03 01:37:29;;;;;;;3.30;3.10;;;21.00;56.90;;;;;;5128045;28;20980;-46
2022/08/03 01:40:02;;;;;;;8.13;2.53;;;21.00;56.70;;;;;;5128148;28;20584;-46
2022/08/03 01:42:35;;;;;;;3.90;2.83;;;21.10;56.60;;;;;;5142747;28;20928;-46
2022/08/03 01:45:09;;;;;;;2.43;2.30;;;21.10;56.40;;;;;;5136084;28;20519;-46
2022/08/03 01:47:47;;;;;;;3.90;2.63;;;21.20;56.20;;;;;;5131784;28;20468;-47
2022/08/03 01:50:25;;;;;;;4.17;2.73;;;21.20;56.00;;;;;;5140784;28;20455;-46
2022/08/03 01:52:57;;;;;;;4.77;2.50;;;21.20;56.70;;;;;;5138179;28;20495;-49
2022/08/03 01:55:28;;;;;;;2.80;2.60;;;21.20;55.80;;;;;;5137453;28;20449;-46
2022/08/03 01:58:02;;;;;;;2.93;2.73;;;21.20;55.80;;;;;;5133792;28;20496;-46
2022/08/03 02:00:37;;;;;;;2.50;2.40;;;21.20;55.70;;;;;;5123654;28;20453;-46
2022/08/03 02:03:11;;;;;;;8.80;2.50;;;21.20;55.80;;;;;;5140286;28;20432;-46
2022/08/03 02:05:44;;;;;;;3.70;2.40;;;21.20;55.50;;;;;;5134743;28;20904;-46
2022/08/03 02:08:17;;;;;;;2.53;2.30;;;21.20;56.00;;;;;;5131979;28;20461;-47
2022/08/03 02:10:48;;;;;;;4.63;2.73;;;21.20;55.30;;;;;;5147973;28;20480;-47
2022/08/03 02:13:21;;;;;;;4.43;2.90;;;21.30;55.40;;;;;;5135991;28;20437;-46
2022/08/03 02:15:53;;;;;;;3.50;2.40;;;21.30;55.30;;;;;;5136645;28;20968;-45
2022/08/03 02:18:25;;;;;;;2.77;2.40;;;21.30;55.10;;;;;;5141882;28;20472;-46
2022/08/03 02:20:56;;;;;;;4.27;2.97;;;21.30;55.10;;;;;;5136851;28;20490;-46
2022/08/03 02:23:27;;;;;;;3.57;2.33;;;21.30;55.10;;;;;;5137511;28;20472;-46
2022/08/03 02:26:01;;;;;;;2.47;2.30;;;21.30;55.10;;;;;;5142776;28;20557;-46
2022/08/03 02:28:36;;;;;;;4.90;2.13;;;21.40;55.20;;;;;;5136739;28;20209;-47
2022/08/03 02:31:13;;;;;;;2.67;2.57;;;21.40;55.10;;;;;;5141768;28;20436;-47
2022/08/03 02:33:51;;;;;;;3.27;3.07;;;21.40;54.90;;;;;;5141165;28;20738;-47
2022/08/03 02:36:27;;;;;;;4.83;3.40;;;21.40;55.10;;;;;;5136567;28;20499;-46
2022/08/03 02:38:59;;;;;;;4.50;3.00;;;21.40;55.30;;;;;;5138885;28;20453;-47
2022/08/03 02:41:47;;;;;;;3.10;2.77;;;21.40;55.10;;;;;;5134929;28;20491;-46
2022/08/03 02:44:26;;;;;;;9.10;2.70;;;21.40;55.00;;;;;;5133745;28;20496;-46
2022/08/03 02:47:03;;;;;;;2.90;2.80;;;21.40;54.90;;;;;;5135116;28;20457;-46
2022/08/03 02:49:35;;;;;;;3.00;2.80;;;21.40;54.90;;;;;;5115423;28;20445;-46
2022/08/03 02:52:10;;;;;;;2.80;2.60;;;21.40;55.10;;;;;;5136605;28;20505;-46
2022/08/03 02:54:41;;;;;;;2.43;2.33;;;21.40;54.70;;;;;;5136504;28;20449;-46
2022/08/03 02:57:13;;;;;;;2.43;2.23;;;21.40;54.80;;;;;;5140245;28;20564;-47
2022/08/03 02:59:45;;;;;;;3.07;2.73;;;21.40;54.80;;;;;;5136657;28;20960;-46
2022/08/03 03:02:17;;;;;;;2.77;2.40;;;21.40;54.60;;;;;;5128814;28;20479;-46
2022/08/03 03:04:52;;;;;;;3.33;3.07;;;21.40;54.70;;;;;;5134729;28;20449;-46
2022/08/03 03:07:23;;;;;;;2.80;2.60;;;21.40;54.20;;;;;;5139232;28;20890;-47
2022/08/03 03:09:53;;;;;;;2.50;2.40;;;21.40;54.50;;;;;;5137968;28;20460;-49
2022/08/03 03:12:26;;;;;;;2.70;2.43;;;21.40;54.70;;;;;;5132764;28;20454;-47
2022/08/03 03:14:57;;;;;;;3.47;3.20;;;21.30;54.70;;;;;;5139569;28;20266;-47
2022/08/03 03:17:29;;;;;;;3.20;2.90;;;21.20;54.60;;;;;;5134489;28;20556;-46
2022/08/03 03:20:00;;;;;;;4.07;2.97;;;21.20;54.90;;;;;;5137738;28;20197;-47
2022/08/03 03:22:33;;;;;;;2.87;2.67;;;21.10;55.10;;;;;;5133986;28;20452;-46
2022/08/03 03:25:05;;;;;;;3.50;2.40;;;21.10;55.20;;;;;;5138465;28;20193;-46
2022/08/03 03:27:36;;;;;;;5.43;2.50;;;21.00;55.20;;;;;;5136436;28;20557;-45
2022/08/03 03:30:08;;;;;;;3.50;3.20;;;21.00;55.40;;;;;;5143515;28;20482;-48
2022/08/03 03:32:38;;;;;;;3.33;2.80;;;21.00;55.60;;;;;;5138434;28;20532;-46
2022/08/03 03:35:10;;;;;;;4.83;2.60;;;20.90;55.70;;;;;;5134439;28;21023;-45
2022/08/03 03:37:41;;;;;;;2.73;2.60;;;20.80;55.90;;;;;;5136538;28;20293;-45
2022/08/03 03:40:13;;;;;;;3.40;3.10;;;20.80;55.90;;;;;;5137240;28;20447;-47
2022/08/03 03:42:43;;;;;;;2.47;2.37;;;20.80;56.00;;;;;;5138806;28;20940;-48
2022/08/03 03:45:15;;;;;;;4.90;2.90;;;20.80;56.20;;;;;;5131433;28;20438;-46
2022/08/03 03:47:45;;;;;;;3.07;2.87;;;20.80;56.20;;;;;;5136708;28;20222;-46
2022/08/03 03:50:17;;;;;;;2.37;2.17;;;20.80;56.30;;;;;;5138658;28;20449;-47
2022/08/03 03:52:48;;;;;;;4.53;3.07;;;20.80;56.40;;;;;;5136715;28;20280;-48
2022/08/03 03:55:19;;;;;;;3.10;2.90;;;20.80;56.50;;;;;;5136875;28;20634;-48
2022/08/03 03:57:50;;;;;;;3.13;2.43;;;20.70;56.50;;;;;;5144182;28;20743;-46
2022/08/03 04:00:21;;;;;;;8.73;3.00;;;20.70;56.70;;;;;;5136776;28;20178;-47
2022/08/03 04:02:51;;;;;;;8.73;3.00;;;20.70;56.90;;;;;;5135817;28;20185;-46
2022/08/03 04:11:21;;;;;;;3.93;3.00;;;20.60;57.20;;;;;;5128215;28;20442;-44
2022/08/03 04:13:57;;;;;;;2.27;2.10;;;20.60;57.90;;;;;;5136171;28;20472;-46
2022/08/03 04:16:32;;;;;;;10.13;3.10;;;20.70;57.30;;;;;;5137475;28;20461;-47
2022/08/03 04:19:14;;;;;;;7.80;2.30;;;20.80;57.50;;;;;;5138017;28;20440;-50
2022/08/03 04:21:49;;;;;;;3.27;2.50;;;20.80;57.40;;;;;;5137879;28;20802;-46
2022/08/03 04:24:22;;;;;;;3.40;3.10;;;20.90;57.40;;;;;;5141319;28;20425;-47
2022/08/03 04:26:53;;;;;;;2.70;2.60;;;21.00;57.20;;;;;;5143711;28;20539;-44
2022/08/03 04:29:25;;;;;;;2.80;2.70;;;21.10;57.20;;;;;;5137618;28;20865;-47
2022/08/03 04:31:59;;;;;;;2.33;2.13;;;21.20;57.10;;;;;;5135990;28;21043;-46
2022/08/03 04:34:30;;;;;;;3.10;2.93;;;21.20;56.90;;;;;;5138943;28;20457;-46
2022/08/03 04:37:07;;;;;;;5.20;2.50;;;21.30;57.00;;;;;;5139593;28;20488;-47
2022/08/03 04:39:40;;;;;;;2.63;2.53;;;21.30;57.00;;;;;;5130445;28;21451;-46
2022/08/03 04:42:12;;;;;;;5.80;2.63;;;21.30;57.10;;;;;;5134973;28;20433;-47
2022/08/03 04:44:44;;;;;;;3.13;2.80;;;21.30;57.20;;;;;;5137716;28;20956;-46
2022/08/03 04:47:15;;;;;;;3.00;2.80;;;21.30;57.10;;;;;;5137930;28;20554;-47
2022/08/03 04:49:46;;;;;;;7.23;3.17;;;21.30;57.60;;;;;;5137246;28;20483;-46
2022/08/03 04:52:17;;;;;;;4.03;3.67;;;21.40;57.80;;;;;;5126002;28;22799;-49
2022/08/03 04:54:48;;;;;;;3.20;2.90;;;21.50;57.90;;;;;;5139269;28;20452;-46
2022/08/03 04:57:19;;;;;;;7.80;3.43;;;21.60;57.30;;;;;;5142277;28;20230;-46
2022/08/03 04:59:53;;;;;;;3.87;2.90;;;22.20;57.40;;;;;;5131140;28;20187;-49
2022/08/03 05:02:24;;;;;;;4.30;3.33;;;23.90;54.20;;;;;;5126557;28;20611;-47
2022/08/03 05:04:54;;;;;;;3.13;2.80;;;25.80;50.10;;;;;;5120201;28;20446;-48
2022/08/03 05:07:25;;;;;;;6.50;3.40;;;27.60;46.10;;;;;;5140398;28;20220;-47
2022/08/03 05:09:55;;;;;;;4.87;3.10;;;29.30;42.80;;;;;;5135899;28;20646;-46
2022/08/03 05:12:26;;;;;;;4.57;2.97;;;30.60;40.80;;;;;;5127483;28;20249;-45
2022/08/03 05:14:57;;;;;;;5.10;3.03;;;31.50;38.90;;;;;;5132512;28;20183;-47
2022/08/03 05:17:27;;;;;;;3.50;3.17;;;32.40;37.50;;;;;;5136870;28;20228;-47
2022/08/03 05:19:58;;;;;;;14.63;3.03;;;33.30;35.50;;;;;;5130757;28;20273;-46
2022/08/03 05:22:29;;;;;;;8.27;3.07;;;34.00;34.60;;;;;;5140082;28;20193;-48
2022/08/03 05:25:00;;;;;;;2.33;2.23;;;34.70;33.40;;;;;;5143854;28;20276;-47
2022/08/03 05:27:31;;;;;;;2.83;2.13;;;35.60;31.90;;;;;;5145015;28;20224;-47
2022/08/03 05:30:02;;;;;;;3.40;2.60;;;36.60;30.40;;;;;;5146560;28;20194;-48
2022/08/03 05:32:33;;;;;;;5.83;2.67;;;37.10;29.10;;;;;;5145029;28;20188;-47
2022/08/03 05:35:04;;;;;;;5.88;2.22;;;37.60;28.70;;;;;;5142698;28;20673;-47
2022/08/03 05:37:35;;;;;;;5.10;3.15;;;37.90;27.80;;;;;;5136303;28;20533;-47
2022/08/03 05:40:06;;;;;;;3.10;2.83;;;38.20;26.90;;;;;;5141581;28;20192;-46
2022/08/03 05:42:37;;;;;;;4.13;2.30;;;38.50;26.90;;;;;;5134351;28;20204;-50
2022/08/03 05:45:14;;;;;;;4.47;2.40;;;38.80;26.70;;;;;;5150309;28;20198;-46
2022/08/03 05:47:45;;;;;;;2.58;2.35;;;39.20;26.00;;;;;;5141024;28;20287;-48
2022/08/03 05:50:17;;;;;;;21.60;6.28;;;40.00;24.80;;;;;;5129541;28;20778;-46
2022/08/03 05:52:48;;;;;;;14.43;5.38;;;40.10;24.80;;;;;;5142235;28;20190;-48
2022/08/03 05:55:18;;;;;;;14.45;5.63;;;40.30;25.10;;;;;;5148341;28;20199;-47
2022/08/03 05:57:49;;;;;;;24.65;7.40;;;40.60;24.30;;;;;;5135363;28;20217;-49
2022/08/03 06:00:19;;;;;;;7.15;4.18;;;40.60;24.20;;;;;;5131429;28;20580;-48
2022/08/03 06:02:50;;;;;;;3.60;3.08;;;40.90;24.20;;;;;;5121368;28;20185;-47
2022/08/03 06:05:21;;;;;;;4.70;3.25;;;41.40;23.90;;;;;;5141179;28;20723;-48
2022/08/03 06:07:52;;;;;;;3.40;3.10;;;42.10;23.50;;;;;;5140243;28;20209;-47
2022/08/03 06:10:23;;;;;;;6.03;2.90;;;42.80;23.00;;;;;;5131123;28;20787;-48
2022/08/03 06:12:53;;;;;;;23.70;3.35;;;43.10;22.60;;;;;;5142773;28;20285;-51
2022/08/03 06:15:24;;;;;;;8.48;3.53;;;43.10;22.20;;;;;;5129097;28;20192;-50
2022/08/03 06:17:56;;;;;;;4.55;2.33;;;42.90;22.10;;;;;;5115388;28;20217;-46
2022/08/03 06:20:26;;;;;;;3.13;2.88;;;43.30;22.10;;;;;;5137108;28;20186;-46
2022/08/03 06:22:57;;;;;;;2.80;2.30;;;43.60;21.50;;;;;;5135672;28;20575;-48
2022/08/03 06:25:28;;;;;;;7.65;2.78;;;43.90;21.30;;;;;;5143450;28;20250;-51
2022/08/03 06:27:59;;;;;;;1.80;1.70;;;43.80;21.00;;;;;;5137461;28;20633;-48
2022/08/03 06:30:29;;;;;;;14.13;2.40;;;44.00;21.40;;;;;;5136179;28;20272;-50
2022/08/03 06:33:00;;;;;;;3.13;2.53;;;44.10;21.30;;;;;;5143434;28;20283;-47
2022/08/03 06:35:31;;;;;;;12.98;3.00;;;44.10;21.00;;;;;;5141813;28;20193;-48
2022/08/03 06:38:02;;;;;;;8.75;2.88;;;44.30;20.70;;;;;;5138735;28;20221;-47
2022/08/03 06:40:38;;;;;;;6.40;2.47;;;44.50;21.00;;;;;;5136191;28;20182;-48
2022/08/03 06:43:09;;;;;;;11.65;2.80;;;44.90;20.60;;;;;;5125432;28;20231;-47
2022/08/03 06:45:40;;;;;;;2.95;2.80;;;45.30;20.50;;;;;;5135588;28;20185;-46
2022/08/03 06:48:11;;;;;;;4.45;3.15;;;45.30;20.00;;;;;;5149100;28;20304;-47
2022/08/03 06:50:43;;;;;;;6.53;2.28;;;45.60;20.00;;;;;;5135325;28;20181;-48
2022/08/03 06:53:13;;;;;;;2.08;1.92;;;45.40;20.30;;;;;;5130989;28;20276;-48
2022/08/03 06:55:44;;;;;;;11.70;2.80;;;45.90;19.70;;;;;;5134128;28;20264;-48
2022/08/03 06:58:15;;;;;;;3.97;2.63;;;45.80;19.70;;;;;;5180604;23;20341;-49
2022/08/03 07:00:45;;;;;;;10.63;3.15;;;46.00;19.90;;;;;;5169149;28;20805;-48
2022/08/03 07:03:16;;;;;;;9.07;2.63;;;46.00;19.60;;;;;;5180019;28;20743;-47
2022/08/03 07:05:47;;;;;;;3.50;1.95;;;46.20;19.60;;;;;;5174033;28;20486;-49
2022/08/03 07:08:18;;;;;;;4.50;1.95;;;46.00;19.10;;;;;;5154440;28;20710;-48
2022/08/03 07:10:49;;;;;;;3.10;1.88;;;45.50;19.50;;;;;;5153827;28;20220;-48
2022/08/03 07:13:20;;;;;;;2.47;1.88;;;45.70;19.40;;;;;;5143194;28;20266;-47
2022/08/03 07:15:50;;;;;;;3.85;2.55;;;45.40;19.70;;;;;;5156936;28;20184;-49
2022/08/03 07:18:22;;;;;;;2.38;2.17;;;45.30;19.50;;;;;;5162328;28;20679;-48
2022/08/03 07:20:52;;;;;;;3.85;2.70;;;45.50;19.40;;;;;;5196234;28;20266;-50
2022/08/03 07:23:24;;;;;;;2.08;1.73;;;45.30;19.50;;;;;;5142187;28;20724;-48
2022/08/03 07:25:55;;;;;;;3.97;1.58;;;45.20;19.70;;;;;;5139864;28;20187;-48
2022/08/03 07:28:25;;;;;;;3.10;2.05;;;45.70;19.50;;;;;;5164544;28;20209;-49
2022/08/03 07:30:56;;;;;;;1.63;1.50;;;45.70;19.20;;;;;;5168064;28;20185;-48
2022/08/03 07:33:26;;;;;;;9.35;2.08;;;44.50;19.40;;;;;;5156027;28;20253;-49
2022/08/03 07:35:57;;;;;;;1.65;1.50;;;44.90;19.80;;;;;;5156812;28;20208;-48
2022/08/03 07:38:28;;;;;;;1.92;1.83;;;45.20;19.60;;;;;;5149856;28;20283;-49
2022/08/03 07:40:59;;;;;;;1.60;1.50;;;44.60;20.00;;;;;;5155434;28;20172;-48
2022/08/03 07:43:30;;;;;;;8.27;2.00;;;44.40;20.20;;;;;;5148302;28;20200;-48
2022/08/03 07:46:00;;;;;;;2.35;1.40;;;44.40;20.00;;;;;;5157378;28;20554;-48
2022/08/03 07:48:31;;;;;;;1.70;1.60;;;44.40;20.40;;;;;;5142540;28;20203;-49
2022/08/03 07:51:02;;;;;;;1.77;1.45;;;44.70;20.10;;;;;;5157849;28;20184;-50
2022/08/03 07:53:33;;;;;;;2.13;1.60;;;45.10;19.90;;;;;;5156040;28;20185;-48
2022/08/03 07:56:04;;;;;;;1.35;1.35;;;45.60;19.40;;;;;;5245945;28;20227;-48
2022/08/03 07:58:35;;;;;;;2.72;1.73;;;46.20;19.30;;;;;;5170027;28;20234;-49
2022/08/03 08:01:06;;;;;;;1.85;1.70;;;46.60;19.10;;;;;;5145514;28;20181;-49
2022/08/03 08:03:37;;;;;;;4.93;1.70;;;46.20;19.00;;;;;;5160782;28;20185;-48
2022/08/03 08:06:07;;;;;;;2.05;1.83;;;46.30;19.10;;;;;;5160421;28;20220;-48
2022/08/03 08:08:38;;;;;;;2.17;1.90;;;46.30;18.90;;;;;;5139921;28;20305;-48
2022/08/03 08:11:09;;;;;;;2.92;1.60;;;46.30;18.70;;;;;;5126892;28;20192;-47
2022/08/03 08:13:39;;;;;;;1.73;1.58;;;46.00;19.10;;;;;;5145367;28;20189;-49
2022/08/03 08:16:10;;;;;;;1.13;1.13;;;45.60;19.00;;;;;;5170183;28;20243;-48
2022/08/03 08:18:40;;;;;;;3.13;1.90;;;45.80;18.60;;;;;;5170537;28;20198;-48
2022/08/03 08:21:11;;;;;;;11.27;2.47;;;46.20;18.70;;;;;;5159945;28;20655;-48
2022/08/03 08:23:42;;;;;;;5.13;1.98;;;45.60;18.60;;;;;;5160558;28;20200;-49
2022/08/03 08:26:12;;;;;;;2.33;1.60;;;45.70;19.20;;;;;;5182661;28;20204;-48
2022/08/03 08:28:43;;;;;;;4.72;1.60;;;46.10;18.50;;;;;;5178141;28;20568;-48
2022/08/03 08:31:13;;;;;;;3.75;1.55;;;45.30;18.50;;;;;;5158164;28;20268;-49
2022/08/03 08:33:44;;;;;;;2.45;1.73;;;45.10;19.00;;;;;;5130122;28;20257;-48
2022/08/03 08:36:15;;;;;;;1.75;1.65;;;45.20;19.20;;;;;;5240102;28;20240;-48
2022/08/03 08:38:46;;;;;;;5.10;2.10;;;45.40;19.10;;;;;;5149624;28;20200;-48
2022/08/03 08:41:16;;;;;;;1.23;1.23;;;45.20;19.00;;;;;;5163125;28;20207;-49
2022/08/03 08:43:47;;;;;;;1.40;1.40;;;45.10;18.80;;;;;;5153494;28;20260;-48
2022/08/03 08:46:19;;;;;;;1.55;1.45;;;44.60;18.80;;;;;;5138470;28;20700;-49
2022/08/03 08:48:52;;;;;;;3.80;1.90;;;44.20;19.10;;;;;;5166372;28;20698;-48
2022/08/03 08:51:28;;;;;;;12.10;2.45;;;43.30;19.30;;;;;;5161716;28;20204;-48
2022/08/03 08:54:02;;;;;;;5.90;1.67;;;42.80;20.30;;;;;;5157364;28;20274;-48
2022/08/03 08:56:34;;;;;;;1.60;1.50;;;42.20;20.70;;;;;;5168370;28;20219;-48
2022/08/03 08:59:05;;;;;;;1.58;1.48;;;40.90;21.20;;;;;;5154808;28;20270;-48
2022/08/03 09:01:36;;;;;;;1.17;1.17;;;39.80;22.20;;;;;;5161115;28;20185;-47
2022/08/03 09:04:08;;;;;;;2.90;1.75;;;38.60;23.30;;;;;;5159292;28;20193;-48
2022/08/03 09:06:38;;;;;;;1.92;1.83;;;37.10;24.50;;;;;;5159873;28;20275;-47
2022/08/03 09:09:09;;;;;;;5.15;1.15;;;36.90;24.90;;;;;;5159780;28;20270;-51
2022/08/03 09:11:43;;;;;;;2.03;1.70;;;36.40;25.50;;;;;;5136857;28;20209;-47
2022/08/03 09:14:14;;;;;;;4.70;1.98;;;35.60;25.70;;;;;;5154767;28;20194;-49
2022/08/03 09:17:03;;;;;;;1.38;1.38;;;34.60;26.60;;;;;;5160258;28;20204;-49
2022/08/03 09:19:35;;;;;;;1.88;1.77;;;33.80;27.80;;;;;;5158301;28;20307;-49
2022/08/03 09:22:11;;;;;;;1.98;1.73;;;33.30;28.20;;;;;;5158786;28;20580;-49
2022/08/03 09:25:04;;;;;;;3.90;1.65;;;33.10;29.00;;;;;;5140546;28;20204;-50
2022/08/03 09:27:42;;;;;;;1.40;1.40;;;32.70;29.00;;;;;;5153455;28;20211;-48
2022/08/03 09:30:15;;;;;;;1.63;1.53;;;32.60;29.40;;;;;;5178495;28;20284;-47
2022/08/03 09:32:46;;;;;;;1.13;1.13;;;32.40;29.90;;;;;;5152381;28;20204;-48
2022/08/03 09:35:27;;;;;;;1.40;1.30;;;32.40;29.50;;;;;;5139416;28;20212;-48
2022/08/03 09:38:10;;;;;;;6.00;1.63;;;32.20;29.70;;;;;;5166568;28;20208;-50
2022/08/03 09:40:42;;;;;;;2.43;1.93;;;32.00;29.80;;;;;;5144524;28;20189;-48
2022/08/03 09:43:13;;;;;;;5.60;1.10;;;31.90;29.90;;;;;;5159733;28;20176;-49
2022/08/03 09:45:44;;;;;;;6.23;2.13;;;31.90;30.10;;;;;;5147432;28;20549;-47
2022/08/03 09:48:25;;;;;;;2.80;1.30;;;31.80;30.30;;;;;;5159561;28;20247;-49
2022/08/03 09:51:02;;;;;;;1.20;1.20;;;31.70;30.40;;;;;;5165598;28;20188;-49
2022/08/03 09:53:43;;;;;;;1.53;1.43;;;31.50;30.00;;;;;;5155877;28;20181;-49
2022/08/03 09:56:13;;;;;;;2.87;1.87;;;31.20;30.10;;;;;;5140853;28;20314;-48
2022/08/03 09:58:46;;;;;;;1.43;1.43;;;31.10;31.50;;;;;;5157154;28;20212;-49
2022/08/03 10:01:19;;;;;;;2.00;1.80;;;31.20;30.90;;;;;;5160491;28;20224;-48
2022/08/03 10:03:57;;;;;;;1.43;1.27;;;31.40;31.10;;;;;;5162817;28;20188;-48
2022/08/03 10:06:28;;;;;;;2.13;1.93;;;31.50;30.70;;;;;;5162197;28;20185;-47
2022/08/03 10:09:13;;;;;;;2.40;1.40;;;31.70;31.00;;;;;;5145689;28;20509;-48
2022/08/03 10:11:45;;;;;;;2.33;2.23;;;31.70;30.50;;;;;;5160154;28;20265;-49
2022/08/03 10:14:19;;;;;;;1.73;1.63;;;31.70;30.50;;;;;;5143206;28;20184;-49
2022/08/03 10:16:49;;;;;;;1.80;1.70;;;31.70;30.60;;;;;;5160016;28;20657;-48
2022/08/03 10:19:20;;;;;;;1.30;1.20;;;31.60;30.30;;;;;;5148368;28;20180;-48
2022/08/03 10:22:02;;;;;;;1.60;1.50;;;31.40;30.00;;;;;;5165674;28;20193;-48
2022/08/03 10:24:35;;;;;;;1.90;1.80;;;31.30;30.80;;;;;;5174646;28;20756;-48
2022/08/03 10:27:07;;;;;;;1.37;1.37;;;31.50;31.00;;;;;;5161605;28;21384;-48
2022/08/03 10:29:41;;;;;;;3.07;1.30;;;31.60;31.00;;;;;;5155026;28;20628;-48
2022/08/03 10:32:48;;;;;;;1.50;1.43;;;31.60;30.40;;;;;;5155978;28;20547;-49
2022/08/03 10:35:20;;;;;;;2.00;1.70;;;31.50;30.40;;;;;;5154958;28;20260;-49
2022/08/03 10:38:08;;;;;;;3.40;3.03;;;31.40;31.00;;;;;;5184491;28;20289;-50
2022/08/03 10:40:39;;;;;;;3.33;2.20;;;31.40;31.30;;;;;;5147871;28;20618;-49
2022/08/03 10:43:15;;;;;;;1.30;1.20;;;31.50;31.00;;;;;;5164768;28;20196;-49
2022/08/03 10:45:46;;;;;;;2.40;1.70;;;31.70;30.70;;;;;;5159692;28;20364;-50
2022/08/03 10:48:18;;;;;;;4.50;2.77;;;31.70;30.60;;;;;;5151173;28;20264;-50
2022/08/03 10:50:49;;;;;;;1.60;1.33;;;31.80;30.90;;;;;;5145562;28;20209;-50
2022/08/03 10:53:38;;;;;;;1.97;1.87;;;31.80;30.10;;;;;;5145668;28;20186;-50
2022/08/03 10:59:45;;;;;;;1.10;1.10;;;31.60;30.20;;;;;;5158045;28;20191;-49
2022/08/03 11:02:16;;;;;;;1.30;1.30;;;31.60;30.90;;;;;;5161156;28;20185;-50
2022/08/03 11:05:27;;;;;;;1.80;1.53;;;31.60;31.00;;;;;;5140617;28;20271;-48
2022/08/03 11:08:20;;;;;;;3.27;1.53;;;31.60;30.20;;;;;;5159794;28;20204;-48
2022/08/03 11:10:57;;;;;;;1.10;1.10;;;31.40;30.60;;;;;;5181572;28;20193;-48
2022/08/03 11:13:30;;;;;;;1.27;1.27;;;31.40;31.00;;;;;;5142626;28;20230;-49
2022/08/03 11:16:17;;;;;;;1.83;1.57;;;31.50;31.40;;;;;;5161514;28;20241;-53
2022/08/03 11:18:59;;;;;;;1.97;1.87;;;31.60;31.40;;;;;;5142583;28;20247;-48
2022/08/03 11:21:48;;;;;;;1.50;1.20;;;31.80;30.60;;;;;;5141703;28;20189;-49
2022/08/03 11:24:40;;;;;;;2.57;1.83;;;31.80;30.90;;;;;;5135421;28;20211;-50
2022/08/03 11:27:13;;;;;;;1.37;1.37;;;31.70;31.00;;;;;;5154435;28;20334;-48
2022/08/03 11:30:18;;;;;;;1.60;1.60;;;31.40;30.90;;;;;;5154673;28;20228;-49
2022/08/03 11:32:51;;;;;;;1.10;1.10;;;31.20;31.40;;;;;;5157751;28;20188;-50
2022/08/03 11:35:27;;;;;;;1.53;1.43;;;31.20;31.70;;;;;;5155291;28;20723;-50
2022/08/03 11:38:01;;;;;;;7.80;3.10;;;31.40;31.50;;;;;;5153715;28;20678;-49
2022/08/03 11:40:41;;;;;;;1.33;1.33;;;31.60;31.90;;;;;;5158676;28;20169;-50
2022/08/03 11:43:21;;;;;;;16.03;3.43;;;31.80;30.40;;;;;;5157496;28;20180;-50
2022/08/03 11:46:08;;;;;;;2.07;1.97;;;31.80;30.30;;;;;;5139517;28;20189;-50
2022/08/03 11:48:44;;;;;;;1.50;1.50;;;31.90;30.80;;;;;;5162330;28;20208;-49
2022/08/03 11:51:28;;;;;;;2.40;1.53;;;31.90;30.90;;;;;;5141862;28;20211;-49
2022/08/03 11:54:04;;;;;;;3.50;1.60;;;32.00;30.60;;;;;;5134298;28;20195;-49
2022/08/03 11:56:46;;;;;;;5.40;1.77;;;32.00;29.90;;;;;;5161470;28;20203;-48
2022/08/03 11:59:17;;;;;;;1.20;1.20;;;31.90;30.00;;;;;;5146335;28;20263;-49
2022/08/03 12:01:48;;;;;;;1.27;1.27;;;31.60;30.40;;;;;;5150709;28;20645;-48
2022/08/03 12:04:18;;;;;;;2.20;1.43;;;31.60;30.40;;;;;;5175795;28;20206;-49
2022/08/03 12:06:59;;;;;;;2.10;1.60;;;31.50;30.60;;;;;;5162357;28;20709;-50
2022/08/03 12:09:31;;;;;;;1.80;1.70;;;31.40;30.60;;;;;;5152579;28;20189;-49
2022/08/03 12:12:02;;;;;;;7.07;3.67;;;31.40;31.00;;;;;;5152566;28;20521;-48
2022/08/03 12:14:33;;;;;;;9.00;4.97;;;31.30;31.10;;;;;;5146861;28;20235;-49
2022/08/03 12:17:04;;;;;;;1.90;1.80;;;31.40;31.50;;;;;;5126594;28;20759;-49
2022/08/03 12:19:42;;;;;;;1.67;1.50;;;31.60;31.20;;;;;;5146373;28;20245;-48
2022/08/03 12:22:12;;;;;;;1.33;1.33;;;31.70;31.10;;;;;;5154663;28;20180;-49
2022/08/03 12:24:43;;;;;;;1.07;1.07;;;31.80;31.60;;;;;;5142458;28;20181;-48
2022/08/03 12:27:25;;;;;;;2.10;1.93;;;31.90;31.40;;;;;;5153254;28;20203;-48
2022/08/03 12:29:57;;;;;;;8.90;1.97;;;32.00;30.80;;;;;;5172940;28;20211;-50
2022/08/03 12:32:29;;;;;;;1.60;1.60;;;32.30;31.10;;;;;;5160851;28;20185;-48
2022/08/03 12:35:00;;;;;;;2.03;1.77;;;32.30;30.70;;;;;;5162036;28;20210;-48
2022/08/03 12:37:30;;;;;;;10.30;1.40;;;32.40;31.10;;;;;;5143174;28;20212;-49
2022/08/03 12:40:04;;;;;;;3.63;1.53;;;32.40;30.50;;;;;;5156572;28;20204;-48
2022/08/03 12:42:37;;;;;;;2.20;1.50;;;32.40;30.20;;;;;;5176544;28;20177;-50
2022/08/03 12:45:25;;;;;;;1.40;1.30;;;32.20;30.00;;;;;;5164049;28;20186;-48
2022/08/03 12:48:01;;;;;;;4.83;1.60;;;32.20;30.50;;;;;;5151400;28;20197;-48
2022/08/03 12:50:34;;;;;;;3.93;3.63;;;32.10;30.80;;;;;;5140195;28;20196;-50
2022/08/03 12:53:07;;;;;;;1.70;1.57;;;32.10;31.10;;;;;;5151212;28;20652;-47
2022/08/03 12:55:38;;;;;;;3.87;1.60;;;32.30;30.70;;;;;;5158930;28;20203;-49
2022/08/03 12:58:32;;;;;;;1.50;1.50;;;32.30;30.20;;;;;;5240734;22;20564;-50
2022/08/03 13:01:05;;;;;;;1.83;1.73;;;32.30;30.60;;;;;;5281421;28;20649;-46
2022/08/03 13:03:44;;;;;;;1.57;1.57;;;32.40;31.00;;;;;;5283802;28;20177;-49
2022/08/03 13:06:16;;;;;;;1.77;1.67;;;32.50;31.40;;;;;;5280154;28;20183;-50
2022/08/03 13:08:47;;;;;;;1.17;1.17;;;32.70;31.30;;;;;;5278801;28;20204;-47
2022/08/03 13:11:19;;;;;;;1.47;1.27;;;32.80;30.90;;;;;;5284681;28;20184;-46
2022/08/03 13:13:51;;;;;;;1.70;1.60;;;32.90;30.70;;;;;;5287532;28;20225;-51
2022/08/03 13:16:23;;;;;;;1.37;1.30;;;32.90;30.50;;;;;;5282193;28;22610;-47
2022/08/03 13:18:55;;;;;;;4.50;2.97;;;33.00;30.10;;;;;;5298784;28;20196;-46
2022/08/03 13:21:25;;;;;;;2.13;1.40;;;32.70;30.00;;;;;;5289311;28;20204;-47
2022/08/03 13:23:56;;;;;;;1.30;1.30;;;32.50;30.10;;;;;;5299876;28;20304;-46
2022/08/03 13:26:26;;;;;;;1.57;1.57;;;32.50;30.40;;;;;;5279493;28;21064;-46
2022/08/03 13:28:57;;;;;;;1.33;1.27;;;32.50;30.70;;;;;;5277281;28;20208;-45